createdAt,value
2023-01-02T00:00:21.039Z,0
2023-01-02T00:00:59.807Z,0
2023-01-02T00:01:40.262Z,0
2023-01-02T00:02:20.831Z,0
2023-01-02T00:03:01.450Z,0
2023-01-02T00:08:22.038Z,0
2023-01-02T00:09:03.487Z,0
2023-01-02T00:09:44.039Z,0
2023-01-02T00:10:24.580Z,0
2023-01-02T00:11:05.136Z,0
2023-01-02T00:11:45.717Z,0
2023-01-02T00:12:26.342Z,0
2023-01-02T00:14:39.415Z,0
2023-01-02T00:15:19.943Z,0
2023-01-02T00:16:00.539Z,0
2023-01-02T00:16:41.061Z,0
2023-01-02T00:17:21.569Z,0
2023-01-02T00:18:02.087Z,0
2023-01-02T00:18:42.637Z,0
2023-01-02T00:19:23.139Z,0
2023-01-02T00:21:36.750Z,0
2023-01-02T00:22:17.269Z,0
2023-01-02T00:22:57.786Z,0
2023-01-02T00:23:38.315Z,0
2023-01-02T00:24:18.860Z,0
2023-01-02T00:24:59.782Z,0
2023-01-02T00:25:40.294Z,0
2023-01-02T00:28:14.788Z,0
2023-01-02T00:28:55.286Z,0
2023-01-02T00:29:35.776Z,0
2023-01-02T00:30:16.907Z,0
2023-01-02T00:30:57.488Z,0
2023-01-02T00:31:38.531Z,0
2023-01-02T00:32:19.044Z,0
2023-01-02T00:32:59.558Z,0
2023-01-02T00:39:05.895Z,0
2023-01-02T00:39:46.414Z,0
2023-01-02T00:40:26.949Z,0
2023-01-02T00:41:07.516Z,0
2023-01-02T00:41:48.021Z,0
2023-01-02T00:42:28.583Z,0
2023-01-02T00:43:09.112Z,0
2023-01-02T00:43:49.600Z,0
2023-01-02T00:49:54.783Z,0
2023-01-02T00:50:35.297Z,0
2023-01-02T00:51:15.829Z,0
2023-01-02T00:51:56.392Z,0
2023-01-02T00:52:36.893Z,0
2023-01-02T00:54:49.957Z,0
2023-01-02T00:55:30.495Z,0
2023-01-02T00:56:11.019Z,0
2023-01-02T00:56:51.537Z,0
2023-01-02T00:57:32.083Z,0
2023-01-02T00:58:12.600Z,0
2023-01-02T00:58:53.265Z,0
2023-01-02T00:59:33.802Z,0
2023-01-02T01:00:18.490Z,0
2023-01-02T01:00:54.893Z,0
2023-01-02T01:07:40.142Z,0
2023-01-02T01:08:20.653Z,0
2023-01-02T01:09:01.205Z,0
2023-01-02T01:09:41.736Z,0
2023-01-02T01:10:22.266Z,0
2023-01-02T01:11:02.809Z,0
2023-01-02T01:11:43.368Z,0
2023-01-02T01:12:23.925Z,0
2023-01-02T01:13:04.517Z,0
2023-01-02T01:13:45.028Z,0
2023-01-02T01:19:49.967Z,0
2023-01-02T01:20:30.627Z,0
2023-01-02T01:21:11.176Z,0
2023-01-02T01:21:51.697Z,0
2023-01-02T01:22:32.272Z,0
2023-01-02T01:23:12.808Z,0
2023-01-02T01:23:53.364Z,0
2023-01-02T01:24:33.913Z,0
2023-01-02T01:25:14.439Z,0
2023-01-02T01:25:54.997Z,0
2023-01-02T01:29:54.564Z,0
2023-01-02T01:30:35.143Z,0
2023-01-02T01:31:15.751Z,0
2023-01-02T01:31:56.300Z,0
2023-01-02T01:32:36.859Z,0
2023-01-02T01:33:17.409Z,0
2023-01-02T01:33:57.968Z,0
2023-01-02T01:34:38.475Z,0
2023-01-02T01:35:19.023Z,0
2023-01-02T01:35:59.636Z,0
2023-01-02T01:39:24.949Z,0
2023-01-02T01:40:05.477Z,0
2023-01-02T01:40:46.054Z,0
2023-01-02T01:41:26.526Z,0
2023-01-02T01:42:07.066Z,0
2023-01-02T01:42:50.332Z,0
2023-01-02T01:43:29.043Z,0
2023-01-02T01:44:09.566Z,0
2023-01-02T01:49:34.571Z,0
2023-01-02T01:50:15.062Z,0
2023-01-02T01:50:55.596Z,0
2023-01-02T01:51:36.108Z,0
2023-01-02T01:52:16.644Z,0
2023-01-02T01:52:57.161Z,0
2023-01-02T01:53:37.680Z,0
2023-01-02T01:54:18.198Z,0
2023-01-02T01:54:58.726Z,0
2023-01-02T01:55:41.092Z,0
2023-01-02T01:59:44.295Z,0
2023-01-02T02:00:24.850Z,0
2023-01-02T02:01:05.465Z,0
2023-01-02T02:03:18.531Z,0
2023-01-02T02:03:59.855Z,0
2023-01-02T02:04:40.979Z,0
2023-01-02T02:05:21.473Z,0
2023-01-02T02:06:01.994Z,0
2023-01-02T02:06:42.536Z,0
2023-01-02T02:07:23.712Z,0
2023-01-02T02:14:05.888Z,0
2023-01-02T02:14:46.396Z,0
2023-01-02T02:15:26.909Z,0
2023-01-02T02:16:07.464Z,0
2023-01-02T02:16:48.053Z,0
2023-01-02T02:17:28.456Z,0
2023-01-02T02:18:08.980Z,0
2023-01-02T02:18:49.492Z,0
2023-01-02T02:19:30.061Z,0
2023-01-02T02:20:10.591Z,0
2023-01-02T02:26:15.625Z,0
2023-01-02T02:26:56.159Z,0
2023-01-02T02:29:09.224Z,0
2023-01-02T02:29:49.732Z,0
2023-01-02T02:30:30.248Z,0
2023-01-02T02:31:10.802Z,0
2023-01-02T02:31:52.902Z,0
2023-01-02T02:32:33.407Z,0
2023-01-02T02:33:13.935Z,0
2023-01-02T02:39:59.256Z,0
2023-01-02T02:40:39.752Z,0
2023-01-02T02:41:20.307Z,0
2023-01-02T02:42:00.803Z,0
2023-01-02T02:42:41.324Z,0
2023-01-02T02:43:21.837Z,0
2023-01-02T02:44:02.353Z,0
2023-01-02T02:44:42.875Z,0
2023-01-02T02:45:23.395Z,0
2023-01-02T02:46:03.926Z,0
2023-01-02T02:51:28.959Z,0
2023-01-02T02:52:09.490Z,0
2023-01-02T02:52:50.034Z,0
2023-01-02T02:53:30.578Z,0
2023-01-02T02:55:45.185Z,0
2023-01-02T02:56:25.702Z,0
2023-01-02T02:57:06.212Z,0
2023-01-02T02:57:46.736Z,0
2023-01-02T02:58:27.265Z,0
2023-01-02T02:59:07.882Z,0
2023-01-02T02:59:48.384Z,0
2023-01-02T03:00:28.907Z,0
2023-01-02T03:01:09.447Z,0
2023-01-02T03:01:50.223Z,0
2023-01-02T03:05:09.610Z,0
2023-01-02T03:05:50.155Z,0
2023-01-02T03:06:31.264Z,0
2023-01-02T03:07:11.813Z,0
2023-01-02T03:07:52.400Z,0
2023-01-02T03:08:33.485Z,0
2023-01-02T03:09:13.457Z,0
2023-01-02T03:09:53.988Z,0
2023-01-02T03:10:34.506Z,0
2023-01-02T03:15:19.403Z,0
2023-01-02T03:17:32.438Z,0
2023-01-02T03:18:12.969Z,0
2023-01-02T03:18:53.501Z,0
2023-01-02T03:19:34.024Z,0
2023-01-02T03:20:14.573Z,0
2023-01-02T03:20:55.107Z,0
2023-01-02T03:21:35.589Z,0
2023-01-02T03:22:16.126Z,0
2023-01-02T03:24:30.887Z,0
2023-01-02T03:25:11.399Z,0
2023-01-02T03:25:51.975Z,0
2023-01-02T03:26:32.457Z,0
2023-01-02T03:27:13.775Z,0
2023-01-02T03:27:54.974Z,0
2023-01-02T03:28:35.543Z,0
2023-01-02T03:36:13.355Z,0
2023-01-02T03:36:53.922Z,0
2023-01-02T03:37:34.596Z,0
2023-01-02T03:38:15.185Z,0
2023-01-02T03:38:55.700Z,0
2023-01-02T03:39:36.250Z,0
2023-01-02T03:40:16.812Z,0
2023-01-02T03:40:57.326Z,0
2023-01-02T03:41:37.855Z,0
2023-01-02T03:42:19.153Z,0
2023-01-02T03:45:39.355Z,0
2023-01-02T03:46:19.980Z,0
2023-01-02T03:47:00.528Z,0
2023-01-02T03:47:41.170Z,0
2023-01-02T03:48:21.674Z,0
2023-01-02T03:49:02.320Z,0
2023-01-02T03:49:42.815Z,0
2023-01-02T03:50:23.324Z,0
2023-01-02T03:51:03.885Z,0
2023-01-02T03:51:44.499Z,0
2023-01-02T03:57:49.784Z,0
2023-01-02T03:58:27.936Z,0
2023-01-02T03:59:08.489Z,0
2023-01-02T03:59:48.987Z,0
2023-01-02T04:00:29.510Z,0
2023-01-02T04:01:10.038Z,0
2023-01-02T04:01:50.685Z,0
2023-01-02T04:02:31.323Z,0
2023-01-02T04:03:11.792Z,0
2023-01-02T04:03:52.269Z,0
2023-01-02T04:09:57.195Z,0
2023-01-02T04:10:37.753Z,0
2023-01-02T04:11:18.238Z,0
2023-01-02T04:11:58.781Z,0
2023-01-02T04:12:39.437Z,0
2023-01-02T04:13:20.047Z,0
2023-01-02T04:14:00.597Z,0
2023-01-02T04:16:29.140Z,0
2023-01-02T04:17:09.649Z,0
2023-01-02T04:17:50.202Z,0
2023-01-02T04:18:30.725Z,0
2023-01-02T04:19:11.247Z,0
2023-01-02T04:19:51.785Z,0
2023-01-02T04:20:32.861Z,0
2023-01-02T04:21:13.373Z,0
2023-01-02T04:21:53.896Z,0
2023-01-02T04:28:10.064Z,0
2023-01-02T04:28:50.578Z,0
2023-01-02T04:29:31.147Z,0
2023-01-02T04:30:11.672Z,0
2023-01-02T04:30:52.216Z,0
2023-01-02T04:31:32.763Z,0
2023-01-02T04:32:13.233Z,0
2023-01-02T04:32:53.757Z,0
2023-01-02T04:33:34.284Z,0
2023-01-02T04:34:14.784Z,0
2023-01-02T04:40:20.226Z,0
2023-01-02T04:41:00.751Z,0
2023-01-02T04:41:41.252Z,0
2023-01-02T04:42:21.774Z,0
2023-01-02T04:43:02.334Z,0
2023-01-02T04:43:43.468Z,0
2023-01-02T04:44:23.967Z,0
2023-01-02T04:45:04.532Z,0
2023-01-02T04:45:45.055Z,0
2023-01-02T04:50:25.090Z,0
2023-01-02T04:51:06.280Z,0
2023-01-02T04:51:47.595Z,0
2023-01-02T04:52:30.769Z,0
2023-01-02T04:53:08.693Z,0
2023-01-02T04:53:49.238Z,0
2023-01-02T04:54:29.756Z,0
2023-01-02T04:59:50.308Z,0
2023-01-02T05:00:30.847Z,0
2023-01-02T05:01:11.606Z,0
2023-01-02T05:01:52.029Z,0
2023-01-02T05:02:32.507Z,0
2023-01-02T05:03:12.986Z,0
2023-01-02T05:03:53.526Z,0
2023-01-02T05:06:07.750Z,0
2023-01-02T05:06:48.247Z,0
2023-01-02T05:07:28.750Z,0
2023-01-02T05:08:13.947Z,0
2023-01-02T05:08:49.776Z,0
2023-01-02T05:09:30.386Z,0
2023-01-02T05:10:10.993Z,0
2023-01-02T05:10:51.531Z,0
2023-01-02T05:11:32.001Z,0
2023-01-02T05:12:12.549Z,0
2023-01-02T05:19:50.220Z,0
2023-01-02T05:20:31.820Z,0
2023-01-02T05:21:12.359Z,0
2023-01-02T05:21:52.865Z,0
2023-01-02T05:24:06.794Z,0
2023-01-02T05:24:47.283Z,0
2023-01-02T05:25:27.786Z,0
2023-01-02T05:26:08.286Z,0
2023-01-02T05:26:48.796Z,0
2023-01-02T05:27:29.323Z,0
2023-01-02T05:28:09.832Z,0
2023-01-02T05:28:51.247Z,0
2023-01-02T05:29:31.745Z,0
2023-01-02T05:34:57.183Z,0
2023-01-02T05:35:37.710Z,0
2023-01-02T05:36:18.200Z,0
2023-01-02T05:36:58.732Z,0
2023-01-02T05:37:39.262Z,0
2023-01-02T05:38:19.801Z,0
2023-01-02T05:39:00.279Z,0
2023-01-02T05:41:14.037Z,0
2023-01-02T05:41:54.539Z,0
2023-01-02T05:42:36.024Z,0
2023-01-02T05:43:16.617Z,0
2023-01-02T05:43:57.162Z,0
2023-01-02T05:44:37.692Z,0
2023-01-02T05:45:18.206Z,0
2023-01-02T05:45:58.791Z,0
2023-01-02T05:49:34.574Z,0
2023-01-02T05:50:15.118Z,0
2023-01-02T05:50:55.611Z,0
2023-01-02T05:51:36.127Z,0
2023-01-02T05:52:16.663Z,0
2023-01-02T05:54:30.234Z,0
2023-01-02T05:55:10.740Z,0
2023-01-02T05:55:51.380Z,0
2023-01-02T05:56:32.111Z,0
2023-01-02T05:57:12.658Z,0
2023-01-02T05:57:53.188Z,0
2023-01-02T05:58:33.866Z,0
2023-01-02T05:59:14.395Z,0
2023-01-02T05:59:54.954Z,0
2023-01-02T06:04:50.157Z,0
2023-01-02T06:05:30.671Z,0
2023-01-02T06:06:11.172Z,0
2023-01-02T06:06:51.714Z,0
2023-01-02T06:07:32.209Z,0
2023-01-02T06:08:12.713Z,0
2023-01-02T06:08:53.222Z,0
2023-01-02T06:09:33.702Z,0
2023-01-02T06:10:14.254Z,0
2023-01-02T06:10:54.795Z,0
2023-01-02T06:18:17.388Z,0
2023-01-02T06:18:57.944Z,0
2023-01-02T06:19:38.456Z,0
2023-01-02T06:20:19.023Z,0
2023-01-02T06:20:59.593Z,0
2023-01-02T06:21:40.140Z,0
2023-01-02T06:22:20.655Z,0
2023-01-02T06:23:01.201Z,0
2023-01-02T06:23:41.707Z,0
2023-01-02T06:24:22.244Z,0
2023-01-02T06:30:27.201Z,0
2023-01-02T06:31:07.801Z,0
2023-01-02T06:33:20.841Z,0
2023-01-02T06:34:01.392Z,0
2023-01-02T06:34:41.917Z,0
2023-01-02T06:35:22.454Z,0
2023-01-02T06:36:03.010Z,0
2023-01-02T06:36:43.548Z,0
2023-01-02T06:37:24.078Z,0
2023-01-02T06:38:05.467Z,0
2023-01-02T06:42:51.659Z,0
2023-01-02T06:43:31.459Z,0
2023-01-02T06:45:45.094Z,0
2023-01-02T06:46:25.587Z,0
2023-01-02T06:47:06.113Z,0
2023-01-02T06:47:47.297Z,0
2023-01-02T06:48:27.852Z,0
2023-01-02T06:49:08.372Z,0
2023-01-02T06:49:48.893Z,4
2023-01-02T06:50:34.790Z,4
2023-01-02T06:51:10.675Z,4
2023-01-02T06:53:15.286Z,4
2023-01-02T06:53:58.256Z,4
2023-01-02T06:54:40.507Z,4
2023-01-02T07:00:04.900Z,12
2023-01-02T07:00:45.429Z,12
2023-01-02T07:01:26.025Z,12
2023-01-02T07:02:06.566Z,12
2023-01-02T07:02:47.148Z,16
2023-01-02T07:03:27.554Z,16
2023-01-02T07:04:08.091Z,20
2023-01-02T07:04:48.623Z,20
2023-01-02T07:05:29.138Z,24
2023-01-02T07:06:09.653Z,28
2023-01-02T07:09:28.658Z,44
2023-01-02T07:10:09.169Z,44
2023-01-02T07:10:52.971Z,48
2023-01-02T07:11:30.265Z,56
2023-01-02T07:12:10.810Z,60
2023-01-02T07:12:51.336Z,60
2023-01-02T07:13:31.824Z,68
2023-01-02T07:14:12.378Z,76
2023-01-02T07:14:52.906Z,80
2023-01-02T07:15:33.454Z,84
2023-01-02T07:20:54.644Z,136
2023-01-02T07:21:35.145Z,144
2023-01-02T07:22:15.737Z,152
2023-01-02T07:22:56.228Z,156
2023-01-02T07:23:36.744Z,164
2023-01-02T07:24:17.303Z,176
2023-01-02T07:24:57.845Z,184
2023-01-02T07:25:44.165Z,196
2023-01-02T07:26:19.664Z,196
2023-01-02T07:30:25.065Z,228
2023-01-02T07:31:05.568Z,236
2023-01-02T07:31:46.127Z,244
2023-01-02T07:32:27.680Z,252
2023-01-02T07:33:07.153Z,260
2023-01-02T07:33:47.676Z,264
2023-01-02T07:34:28.185Z,268
2023-01-02T07:35:08.805Z,268
2023-01-02T07:41:14.497Z,328
2023-01-02T07:41:55.668Z,344
2023-01-02T07:42:36.222Z,360
2023-01-02T07:43:16.768Z,380
2023-01-02T07:45:31.096Z,448
2023-01-02T07:46:12.133Z,472
2023-01-02T07:46:52.674Z,488
2023-01-02T07:47:36.887Z,508
2023-01-02T07:49:34.827Z,544
2023-01-02T07:50:15.361Z,560
2023-01-02T07:50:55.878Z,580
2023-01-02T07:51:36.393Z,604
2023-01-02T07:52:16.912Z,632
2023-01-02T07:52:57.429Z,668
2023-01-02T07:53:37.939Z,700
2023-01-02T07:54:18.479Z,744
2023-01-02T07:54:59.004Z,788
2023-01-02T07:55:39.533Z,840
2023-01-02T07:59:39.013Z,1088
2023-01-02T08:00:19.545Z,1104
2023-01-02T08:01:05.567Z,1124
2023-01-02T08:01:42.616Z,1144
2023-01-02T08:02:23.210Z,1168
2023-01-02T08:03:03.562Z,1188
2023-01-02T08:03:44.062Z,1200
2023-01-02T08:09:48.812Z,1436
2023-01-02T08:10:29.344Z,1472
2023-01-02T08:11:09.866Z,1508
2023-01-02T08:11:50.394Z,1536
2023-01-02T08:12:30.946Z,1576
2023-01-02T08:13:11.461Z,1580
2023-01-02T08:13:51.984Z,1592
2023-01-02T08:14:32.495Z,1620
2023-01-02T08:15:13.022Z,1656
2023-01-02T08:15:53.544Z,1684
2023-01-02T08:16:34.241Z,1720
2023-01-02T08:22:38.837Z,1860
2023-01-02T08:23:19.347Z,1864
2023-01-02T08:23:59.866Z,1880
2023-01-02T08:24:40.395Z,1892
2023-01-02T08:25:20.925Z,1916
2023-01-02T08:26:01.456Z,1932
2023-01-02T08:26:41.967Z,1936
2023-01-02T08:27:22.506Z,1944
2023-01-02T08:29:35.569Z,2008
2023-01-02T08:30:16.091Z,2020
2023-01-02T08:30:56.675Z,2040
2023-01-02T08:31:41.871Z,2060
2023-01-02T08:32:17.662Z,2088
2023-01-02T08:32:58.184Z,2128
2023-01-02T08:33:38.707Z,2192
2023-01-02T08:34:19.252Z,2248
2023-01-02T08:34:59.782Z,2328
2023-01-02T08:35:40.325Z,2472
2023-01-02T08:41:45.815Z,3628
2023-01-02T08:42:26.371Z,3824
2023-01-02T08:43:06.903Z,3916
2023-01-02T08:43:49.223Z,3920
2023-01-02T08:44:29.754Z,4068
2023-01-02T08:45:10.312Z,4316
2023-01-02T08:51:56.318Z,4248
2023-01-02T08:52:36.851Z,4316
2023-01-02T08:53:17.418Z,4392
2023-01-02T08:53:57.947Z,4416
2023-01-02T08:56:12.609Z,4372
2023-01-02T08:56:53.881Z,4220
2023-01-02T08:57:35.109Z,4148
2023-01-02T08:58:16.374Z,4108
2023-01-02T09:00:36.137Z,3856
2023-01-02T09:01:16.703Z,3768
2023-01-02T09:01:57.272Z,3684
2023-01-02T09:02:37.919Z,3588
2023-01-02T09:03:18.219Z,3572
2023-01-02T09:03:58.772Z,3564
2023-01-02T09:04:39.265Z,3540
2023-01-02T09:05:19.782Z,3468
2023-01-02T09:06:00.271Z,3516
2023-01-02T09:06:40.856Z,3492
2023-01-02T09:12:46.070Z,3752
2023-01-02T09:13:26.611Z,3724
2023-01-02T09:14:07.149Z,3780
2023-01-02T09:14:47.674Z,3780
2023-01-02T09:15:28.245Z,3772
2023-01-02T09:16:08.761Z,3732
2023-01-02T09:16:49.270Z,3736
2023-01-02T09:19:05.404Z,3652
2023-01-02T09:19:46.515Z,3576
2023-01-02T09:20:27.148Z,3476
2023-01-02T09:21:08.823Z,3396
2023-01-02T09:23:39.502Z,3336
2023-01-02T09:24:20.026Z,3460
2023-01-02T09:25:00.533Z,3596
2023-01-02T09:25:41.035Z,3680
2023-01-02T09:26:21.589Z,3752
2023-01-02T09:28:35.325Z,3924
2023-01-02T09:29:16.308Z,4012
2023-01-02T09:29:58.834Z,4108
2023-01-02T09:30:39.384Z,4364
2023-01-02T09:33:00.323Z,4280
2023-01-02T09:33:42.439Z,3808
2023-01-02T09:34:26.261Z,3480
2023-01-02T09:35:06.809Z,3132
2023-01-02T09:37:19.839Z,2460
2023-01-02T09:38:00.390Z,2332
2023-01-02T09:38:40.926Z,2308
2023-01-02T09:39:23.588Z,2236
2023-01-02T09:40:02.043Z,2252
2023-01-02T09:40:42.566Z,2288
2023-01-02T09:41:23.148Z,2444
2023-01-02T09:42:03.699Z,2724
2023-01-02T09:42:44.278Z,2760
2023-01-02T09:43:26.662Z,2700
2023-01-02T09:47:29.914Z,2696
2023-01-02T09:48:10.416Z,2872
2023-01-02T09:50:25.110Z,3244
2023-01-02T09:51:07.836Z,2928
2023-01-02T09:51:48.704Z,3132
2023-01-02T09:52:29.160Z,2644
2023-01-02T09:54:42.398Z,2848
2023-01-02T09:55:22.928Z,3104
2023-01-02T09:56:04.378Z,2908
2023-01-02T09:56:45.820Z,3008
2023-01-02T09:57:26.340Z,2996
2023-01-02T09:58:06.878Z,2964
2023-01-02T09:58:47.414Z,2860
2023-01-02T10:04:52.166Z,3448
2023-01-02T10:05:32.758Z,3756
2023-01-02T10:06:13.290Z,3788
2023-01-02T10:06:53.805Z,3964
2023-01-02T10:07:34.321Z,4152
2023-01-02T10:08:15.967Z,4296
2023-01-02T10:08:56.473Z,4448
2023-01-02T10:09:37.002Z,4612
2023-01-02T10:15:42.366Z,5592
2023-01-02T10:16:22.895Z,5408
2023-01-02T10:17:03.643Z,4916
2023-01-02T10:19:16.709Z,4896
2023-01-02T10:19:57.212Z,4640
2023-01-02T10:20:39.715Z,4580
2023-01-02T10:21:21.069Z,4624
2023-01-02T10:23:35.399Z,4456
2023-01-02T10:24:15.916Z,4440
2023-01-02T10:24:56.517Z,4500
2023-01-02T10:25:37.205Z,4452
2023-01-02T10:26:17.729Z,4284
2023-01-02T10:28:48.793Z,3828
2023-01-02T10:29:31.224Z,3736
2023-01-02T10:30:15.251Z,3688
2023-01-02T10:30:56.315Z,3572
2023-01-02T10:32:54.361Z,3260
2023-01-02T10:33:36.442Z,3232
2023-01-02T10:34:17.696Z,3280
2023-01-02T10:34:58.317Z,3396
2023-01-02T10:37:32.411Z,3776
2023-01-02T10:38:12.915Z,3936
2023-01-02T10:38:53.503Z,4108
2023-01-02T10:39:34.050Z,4096
2023-01-02T10:40:15.111Z,3996
2023-01-02T10:42:14.728Z,3924
2023-01-02T10:42:59.954Z,4076
2023-01-02T10:43:40.970Z,4660
2023-01-02T10:44:23.099Z,4648
2023-01-02T10:46:52.495Z,4244
2023-01-02T10:47:32.982Z,4508
2023-01-02T10:48:13.438Z,4540
2023-01-02T10:48:53.982Z,4896
2023-01-02T10:49:34.533Z,5328
2023-01-02T10:50:15.004Z,5928
2023-01-02T10:50:55.578Z,6000
2023-01-02T10:51:36.085Z,5912
2023-01-02T10:52:16.649Z,6308
2023-01-02T10:52:57.212Z,6988
2023-01-02T10:57:02.114Z,5072
2023-01-02T10:57:42.605Z,4904
2023-01-02T10:58:23.151Z,4988
2023-01-02T10:59:03.730Z,4988
2023-01-02T10:59:44.252Z,4880
2023-01-02T11:00:27.968Z,4924
2023-01-02T11:01:05.491Z,4684
2023-01-02T11:01:46.000Z,4564
2023-01-02T11:02:26.489Z,4540
2023-01-02T11:03:07.027Z,4472
2023-01-02T11:03:47.557Z,4424
2023-01-02T11:09:52.497Z,5064
2023-01-02T11:10:33.813Z,5072
2023-01-02T11:11:14.375Z,4844
2023-01-02T11:11:54.899Z,4956
2023-01-02T11:12:35.471Z,4900
2023-01-02T11:13:15.980Z,4712
2023-01-02T11:13:56.499Z,4772
2023-01-02T11:14:37.069Z,4848
2023-01-02T11:21:22.694Z,5708
2023-01-02T11:22:03.235Z,5592
2023-01-02T11:22:43.779Z,5556
2023-01-02T11:23:24.338Z,5544
2023-01-02T11:24:04.920Z,5712
2023-01-02T11:24:45.503Z,6208
2023-01-02T11:25:26.021Z,6448
2023-01-02T11:26:06.547Z,6808
2023-01-02T11:26:47.095Z,6624
2023-01-02T11:32:52.555Z,5524
2023-01-02T11:35:05.322Z,5728
2023-01-02T11:35:45.877Z,5824
2023-01-02T11:36:26.442Z,5816
2023-01-02T11:37:07.055Z,5904
2023-01-02T11:37:47.540Z,6108
2023-01-02T11:38:29.225Z,6376
2023-01-02T11:39:08.665Z,6880
2023-01-02T11:39:49.191Z,7272
2023-01-02T11:40:29.735Z,7044
2023-01-02T11:41:10.284Z,6828
2023-01-02T11:44:31.354Z,4804
2023-01-02T11:45:11.942Z,4836
2023-01-02T11:45:52.485Z,4776
2023-01-02T11:46:32.966Z,4928
2023-01-02T11:47:13.504Z,4944
2023-01-02T11:49:26.779Z,5136
2023-01-02T11:50:07.333Z,5436
2023-01-02T11:50:47.867Z,5760
2023-01-02T11:51:28.532Z,6112
2023-01-02T11:52:09.071Z,5900
2023-01-02T11:52:49.734Z,6708
2023-01-02T11:53:30.363Z,6780
2023-01-02T11:54:10.881Z,6632
2023-01-02T11:54:51.425Z,6856
2023-01-02T12:01:08.973Z,6552
2023-01-02T12:01:49.621Z,6356
2023-01-02T12:02:31.004Z,6328
2023-01-02T12:03:15.280Z,6336
2023-01-02T12:05:26.082Z,6440
2023-01-02T12:06:06.603Z,6468
2023-01-02T12:06:47.107Z,6456
2023-01-02T12:07:27.624Z,6504
2023-01-02T12:08:09.012Z,6532
2023-01-02T12:08:51.423Z,6708
2023-01-02T12:09:30.095Z,6928
2023-01-02T12:10:10.641Z,7116
2023-01-02T12:10:51.171Z,7248
2023-01-02T12:13:31.415Z,7184
2023-01-02T12:14:12.495Z,6532
2023-01-02T12:14:54.856Z,5860
2023-01-02T12:15:33.536Z,5464
2023-01-02T12:16:14.102Z,5520
2023-01-02T12:16:54.633Z,5656
2023-01-02T12:17:35.086Z,5704
2023-01-02T12:18:15.621Z,5820
2023-01-02T12:18:56.177Z,5920
2023-01-02T12:23:01.443Z,7876
2023-01-02T12:23:42.001Z,8424
2023-01-02T12:24:22.518Z,8760
2023-01-02T12:25:03.106Z,9012
2023-01-02T12:25:43.761Z,9228
2023-01-02T12:27:59.854Z,7468
2023-01-02T12:28:42.510Z,6392
2023-01-02T12:31:11.994Z,3848
2023-01-02T12:31:52.524Z,3828
2023-01-02T12:32:33.030Z,4216
2023-01-02T12:33:13.570Z,5228
2023-01-02T12:33:54.070Z,6808
2023-01-02T12:34:34.609Z,7776
2023-01-02T12:35:17.067Z,8100
2023-01-02T12:39:21.747Z,6972
2023-01-02T12:42:01.168Z,4928
2023-01-02T12:42:32.062Z,4900
2023-01-02T12:43:12.613Z,4980
2023-01-02T12:43:53.097Z,5080
2023-01-02T12:44:34.096Z,5068
2023-01-02T12:45:14.218Z,4888
2023-01-02T12:45:54.723Z,4664
2023-01-02T12:46:35.245Z,4504
2023-01-02T12:47:15.776Z,4436
2023-01-02T12:47:56.294Z,4372
2023-01-02T12:53:21.247Z,4988
2023-01-02T12:54:18.525Z,5192
2023-01-02T12:54:42.367Z,5388
2023-01-02T12:55:22.894Z,5408
2023-01-02T12:57:35.999Z,4744
2023-01-02T12:58:16.574Z,4684
2023-01-02T12:58:57.075Z,4596
2023-01-02T12:59:37.593Z,4396
2023-01-02T13:00:18.125Z,4120
2023-01-02T13:02:48.128Z,3140
2023-01-02T13:03:34.318Z,2900
2023-01-02T13:06:53.909Z,2672
2023-01-02T13:07:34.459Z,2812
2023-01-02T13:08:15.000Z,2936
2023-01-02T13:08:55.521Z,2940
2023-01-02T13:09:36.029Z,2756
2023-01-02T13:10:16.539Z,2516
2023-01-02T13:10:57.047Z,2316
2023-01-02T13:11:37.618Z,2184
2023-01-02T13:12:18.094Z,2120
2023-01-02T13:12:58.745Z,2152
2023-01-02T13:19:04.065Z,2072
2023-01-02T13:19:44.611Z,1984
2023-01-02T13:21:57.687Z,1672
2023-01-02T13:22:38.248Z,1584
2023-01-02T13:23:18.757Z,1484
2023-01-02T13:23:59.265Z,1388
2023-01-02T13:24:39.810Z,1304
2023-01-02T13:25:21.320Z,1280
2023-01-02T13:26:01.881Z,1352
2023-01-02T13:28:30.241Z,1500
2023-01-02T13:29:10.771Z,1464
2023-01-02T13:29:51.310Z,1464
2023-01-02T13:30:32.004Z,1508
2023-01-02T13:31:45.149Z,1508
2023-01-02T13:33:27.418Z,1336
2023-01-02T13:34:07.937Z,1272
2023-01-02T13:34:48.451Z,1264
2023-01-02T13:35:29.727Z,1296
2023-01-02T13:36:14.197Z,1276
2023-01-02T13:42:55.798Z,1300
2023-01-02T13:43:36.364Z,1256
2023-01-02T13:44:16.942Z,1272
2023-01-02T13:44:57.464Z,1300
2023-01-02T13:45:38.029Z,1324
2023-01-02T13:46:37.256Z,1396
2023-01-02T13:47:03.661Z,1448
2023-01-02T13:47:40.529Z,1436
2023-01-02T13:53:05.460Z,1640
2023-01-02T13:53:45.985Z,1556
2023-01-02T13:54:26.529Z,1388
2023-01-02T13:55:07.050Z,1216
2023-01-02T13:55:47.614Z,1112
2023-01-02T13:56:28.134Z,1036
2023-01-02T13:57:08.673Z,980
2023-01-02T13:57:49.178Z,956
2023-01-02T13:58:29.698Z,928
2023-01-02T13:59:41.151Z,932
2023-01-02T14:05:27.222Z,936
2023-01-02T14:06:07.736Z,956
2023-01-02T14:06:53.512Z,900
2023-01-02T14:07:28.822Z,860
2023-01-02T14:08:09.366Z,864
2023-01-02T14:08:49.858Z,892
2023-01-02T14:09:30.379Z,932
2023-01-02T14:10:11.008Z,992
2023-01-02T14:10:51.460Z,1040
2023-01-02T14:11:55.166Z,1048
2023-01-02T14:18:14.343Z,1180
2023-01-02T14:18:54.857Z,1176
2023-01-02T14:19:35.379Z,1156
2023-01-02T14:20:15.907Z,1144
2023-01-02T14:20:56.414Z,1108
2023-01-02T14:21:36.926Z,1060
2023-01-02T14:22:17.482Z,996
2023-01-02T14:22:57.993Z,932
2023-01-02T14:23:38.511Z,848
2023-01-02T14:24:20.533Z,784
2023-01-02T14:29:48.953Z,1024
2023-01-02T14:30:24.597Z,1040
2023-01-02T14:31:05.181Z,1044
2023-01-02T14:31:46.528Z,1024
2023-01-02T14:32:27.175Z,980
2023-01-02T14:33:07.727Z,928
2023-01-02T14:33:48.257Z,868
2023-01-02T14:34:28.765Z,792
2023-01-02T14:35:09.356Z,716
2023-01-02T14:39:14.492Z,732
2023-01-02T14:39:55.049Z,656
2023-01-02T14:40:35.557Z,604
2023-01-02T14:41:16.116Z,556
2023-01-02T14:41:56.607Z,496
2023-01-02T14:42:37.155Z,440
2023-01-02T14:43:17.664Z,392
2023-01-02T14:43:58.198Z,368
2023-01-02T14:44:38.732Z,368
2023-01-02T14:45:19.429Z,356
2023-01-02T14:51:22.831Z,564
2023-01-02T14:52:03.331Z,500
2023-01-02T14:52:44.791Z,420
2023-01-02T14:53:25.405Z,336
2023-01-02T14:55:42.132Z,216
2023-01-02T14:56:21.218Z,188
2023-01-02T14:57:03.699Z,168
2023-01-02T14:57:45.812Z,152
2023-01-02T14:58:27.215Z,144
2023-01-02T14:59:15.223Z,148
2023-01-02T14:59:59.187Z,148
2023-01-02T15:00:42.229Z,136
2023-01-02T15:01:41.979Z,128
2023-01-02T15:03:30.869Z,124
2023-01-02T15:04:14.837Z,136
2023-01-02T15:05:39.679Z,184
2023-01-02T15:06:20.234Z,204
2023-01-02T15:07:09.503Z,220
2023-01-02T15:09:09.790Z,252
2023-01-02T15:09:50.337Z,228
2023-01-02T15:10:30.942Z,200
2023-01-02T15:11:13.191Z,188
2023-01-02T15:11:53.727Z,200
2023-01-02T15:14:09.329Z,164
2023-01-02T15:14:49.878Z,160
2023-01-02T15:15:31.142Z,156
2023-01-02T15:16:14.351Z,172
2023-01-02T15:18:20.939Z,156
2023-01-02T15:19:01.532Z,156
2023-01-02T15:19:42.652Z,148
2023-01-02T15:20:26.054Z,120
2023-01-02T15:23:11.721Z,84
2023-01-02T15:23:53.723Z,88
2023-01-02T15:26:32.221Z,88
2023-01-02T15:26:45.210Z,84
2023-01-02T15:28:08.964Z,72
2023-01-02T15:28:49.548Z,72
2023-01-02T15:29:31.712Z,68
2023-01-02T15:30:13.695Z,64
2023-01-02T15:31:39.805Z,60
2023-01-02T15:32:21.945Z,64
2023-01-02T15:33:03.428Z,64
2023-01-02T15:33:43.969Z,60
2023-01-02T15:37:11.031Z,48
2023-01-02T15:37:55.938Z,40
2023-01-02T15:39:19.754Z,32
2023-01-02T15:40:02.715Z,28
2023-01-02T15:40:44.030Z,28
2023-01-02T15:42:49.931Z,24
2023-01-02T15:43:31.216Z,24
2023-01-02T15:44:11.744Z,24
2023-01-02T15:44:52.233Z,24
2023-01-02T15:45:32.768Z,20
2023-01-02T15:46:22.762Z,16
2023-01-02T15:47:08.767Z,12
2023-01-02T15:47:49.912Z,8
2023-01-02T15:48:31.427Z,12
2023-01-02T15:49:16.224Z,12
2023-01-02T15:50:40.248Z,8
2023-01-02T15:51:39.931Z,8
2023-01-02T15:52:03.803Z,4
2023-01-02T15:53:31.317Z,8
2023-01-02T15:54:20.210Z,4
2023-01-02T15:55:02.553Z,4
2023-01-02T15:55:44.524Z,4
2023-01-02T15:57:49.730Z,4
2023-01-02T15:58:36.723Z,4
2023-01-02T15:59:24.123Z,4
2023-01-02T16:00:50.418Z,4
2023-01-02T16:01:35.469Z,4
2023-01-02T16:02:59.658Z,4
2023-01-02T16:04:00.940Z,4
2023-01-02T16:04:20.694Z,0
2023-01-02T16:05:02.719Z,0
2023-01-02T16:05:44.965Z,0
2023-01-02T16:07:09.571Z,4
2023-01-02T16:07:53.705Z,4
2023-01-02T16:08:42.745Z,4